createdAt,value
2023-05-05T00:00:07.618Z,9.5
2023-05-05T00:12:07.518Z,10
2023-05-05T00:24:07.518Z,10
2023-05-05T00:36:07.438Z,10.5
2023-05-05T00:48:07.686Z,10.5
2023-05-05T01:00:07.755Z,12
2023-05-05T01:12:07.535Z,11.5
2023-05-05T01:24:07.473Z,12.5
2023-05-05T01:36:07.675Z,12
2023-05-05T01:48:07.585Z,12
2023-05-05T02:00:07.844Z,12
2023-05-05T02:12:07.528Z,12
2023-05-05T02:24:07.734Z,12
2023-05-05T02:36:07.649Z,12
2023-05-05T02:48:07.646Z,12.5
2023-05-05T03:00:07.879Z,12.5
2023-05-05T03:12:07.743Z,12.5
2023-05-05T03:24:07.664Z,12.5
2023-05-05T03:36:07.661Z,12.5
2023-05-05T03:48:07.793Z,12
2023-05-05T04:00:07.937Z,12
2023-05-05T04:12:07.712Z,12
2023-05-05T04:24:07.657Z,12
2023-05-05T04:36:07.825Z,12
2023-05-05T04:48:07.819Z,12
2023-05-05T05:00:08.168Z,12.5
2023-05-05T05:12:07.715Z,13
2023-05-05T05:24:07.879Z,13
2023-05-05T05:36:07.825Z,13.5
2023-05-05T05:48:07.790Z,14
2023-05-05T06:00:08.118Z,16
2023-05-05T06:12:07.856Z,16
2023-05-05T06:24:07.849Z,15.5
2023-05-05T06:36:07.810Z,17
2023-05-05T06:48:08.162Z,18
2023-05-05T07:00:08.313Z,17.5
2023-05-05T07:12:08.067Z,19.5
2023-05-05T07:24:07.830Z,25.5
2023-05-05T07:36:08.098Z,29
2023-05-05T07:48:08.009Z,28
2023-05-05T08:00:08.545Z,30.5
2023-05-05T08:12:07.900Z,31
2023-05-05T08:24:07.998Z,28
2023-05-05T08:36:08.046Z,30
2023-05-05T08:48:08.172Z,29
2023-05-05T09:00:07.978Z,24.5
2023-05-05T09:12:08.211Z,22.5
2023-05-05T09:24:09.025Z,24
2023-05-05T09:36:08.232Z,24.5
2023-05-05T09:48:08.042Z,24
2023-05-05T10:00:08.599Z,21.5
2023-05-05T10:12:08.116Z,21
2023-05-05T10:24:08.121Z,21.5
2023-05-05T10:36:08.060Z,21
2023-05-05T10:48:08.386Z,22
2023-05-05T11:00:08.522Z,21.5
2023-05-05T11:12:08.272Z,19
2023-05-05T11:24:08.141Z,22
2023-05-05T11:36:08.370Z,22.5
2023-05-05T11:48:08.260Z,21
2023-05-05T12:00:08.747Z,21.5
2023-05-05T12:12:08.230Z,17.5
2023-05-05T12:24:08.546Z,20.5
2023-05-05T12:36:08.155Z,21
2023-05-05T12:48:08.371Z,20.5
2023-05-05T13:00:08.469Z,20.5
2023-05-05T13:12:08.299Z,21
2023-05-05T13:24:23.310Z,23
2023-05-05T13:36:08.544Z,21.5
2023-05-05T13:48:09.704Z,21.5
2023-05-05T14:00:08.310Z,24
2023-05-05T14:12:08.396Z,22
2023-05-05T14:24:08.437Z,21.5
2023-05-05T14:36:08.333Z,24
2023-05-05T14:48:08.404Z,23.5
2023-05-05T15:00:08.357Z,23
2023-05-05T15:12:08.511Z,21.5
2023-05-05T15:24:08.385Z,21.5
2023-05-05T15:36:08.410Z,21
2023-05-05T15:48:08.478Z,22.5
2023-05-05T16:00:08.459Z,21.5
2023-05-05T16:12:08.462Z,21.5
2023-05-05T16:24:08.529Z,19.5
2023-05-05T16:36:08.388Z,19
2023-05-05T16:48:09.255Z,19
2023-05-05T17:00:08.557Z,20
2023-05-05T17:12:08.869Z,20
2023-05-05T17:24:08.424Z,20
2023-05-05T17:36:08.611Z,19.5
2023-05-05T17:48:08.560Z,19.5
2023-05-05T18:00:08.551Z,18
2023-05-05T18:12:08.468Z,18
2023-05-05T18:24:19.078Z,18
2023-05-05T18:36:08.582Z,18
2023-05-05T18:48:08.695Z,18
2023-05-05T19:00:08.933Z,17.5
2023-05-05T19:12:08.683Z,18
2023-05-05T19:24:08.603Z,18
2023-05-05T19:36:08.804Z,17.5
2023-05-05T19:48:08.596Z,18
2023-05-05T20:00:08.984Z,17.5
2023-05-05T20:12:08.722Z,16.5
2023-05-05T20:24:08.788Z,16.5
2023-05-05T20:36:08.680Z,16
2023-05-05T20:48:08.998Z,15.5
2023-05-05T21:00:09.001Z,15.5
2023-05-05T21:12:08.847Z,15.5
2023-05-05T21:24:08.866Z,16
2023-05-05T21:36:08.750Z,15.5
2023-05-05T21:48:08.902Z,15
2023-05-05T22:00:09.288Z,15
2023-05-05T22:12:08.779Z,15.5
2023-05-05T22:24:08.850Z,15
2023-05-05T22:36:08.817Z,16
2023-05-05T22:48:09.067Z,16
2023-05-05T23:00:08.755Z,15.5
2023-05-05T23:12:09.075Z,15.5
2023-05-05T23:24:08.879Z,15
2023-05-05T23:36:08.878Z,15
2023-05-05T23:48:08.874Z,15
